createdAt,value
2018-02-25T00:00:14.604Z,-6.77
2018-02-25T00:01:14.596Z,-6.85
2018-02-25T00:02:14.615Z,-6.85
2018-02-25T00:03:14.563Z,-6.85
2018-02-25T00:04:14.549Z,-6.91
2018-02-25T00:05:14.533Z,-6.91
2018-02-25T00:06:14.519Z,-6.95
2018-02-25T00:07:14.500Z,-7.05
2018-02-25T00:08:14.491Z,-6.94
2018-02-25T00:09:14.473Z,-6.92
2018-02-25T00:10:14.459Z,-6.90
2018-02-25T00:11:14.443Z,-6.88
2018-02-25T00:12:14.427Z,-6.88
2018-02-25T00:13:14.414Z,-6.95
2018-02-25T00:14:14.396Z,-6.91
2018-02-25T00:15:14.391Z,-6.95
2018-02-25T00:16:14.383Z,-6.99
2018-02-25T00:17:14.353Z,-6.92
2018-02-25T00:18:14.335Z,-6.92
2018-02-25T00:19:14.322Z,-6.95
2018-02-25T00:20:14.311Z,-6.97
2018-02-25T00:21:14.312Z,-7.08
2018-02-25T00:22:14.276Z,-7.00
2018-02-25T00:23:14.264Z,-7.03
2018-02-25T00:24:14.257Z,-7.00
2018-02-25T00:25:14.234Z,-7.06
2018-02-25T00:26:14.227Z,-7.06
2018-02-25T00:27:14.205Z,-7.03
2018-02-25T00:28:14.188Z,-7.12
2018-02-25T00:29:14.182Z,-7.19
2018-02-25T00:30:14.163Z,-7.09
2018-02-25T00:31:14.146Z,-7.08
2018-02-25T00:32:14.134Z,-7.19
2018-02-25T00:33:14.119Z,-7.21
2018-02-25T00:34:14.099Z,-7.21
2018-02-25T00:35:14.085Z,-7.12
2018-02-25T00:36:14.068Z,-7.03
2018-02-25T00:37:14.053Z,-7.09
2018-02-25T00:38:14.040Z,-7.12
2018-02-25T00:39:14.031Z,-7.12
2018-02-25T00:40:14.013Z,-7.13
2018-02-25T00:41:13.998Z,-7.10
2018-02-25T00:42:13.981Z,-7.13
2018-02-25T00:43:13.965Z,-7.05
2018-02-25T00:44:13.959Z,-7.19
2018-02-25T00:45:13.936Z,-7.24
2018-02-25T00:46:13.921Z,-7.19
2018-02-25T00:47:13.973Z,-7.24
2018-02-25T00:48:13.890Z,-7.33
2018-02-25T00:49:13.873Z,-7.33
2018-02-25T00:50:13.860Z,-7.38
2018-02-25T00:51:13.851Z,-7.37
2018-02-25T00:52:13.837Z,-7.34
2018-02-25T00:53:13.813Z,-7.24
2018-02-25T00:54:13.799Z,-7.30
2018-02-25T00:55:13.796Z,-7.24
2018-02-25T00:56:13.769Z,-7.26
2018-02-25T00:57:13.754Z,-7.21
2018-02-25T00:58:27.060Z,-7.26
2018-02-25T01:00:08.180Z,-7.24
2018-02-25T01:01:08.106Z,-7.37
2018-02-25T01:03:03.566Z,-7.34
2018-02-25T01:04:03.416Z,-7.29
2018-02-25T01:05:57.821Z,-7.37
2018-02-25T01:06:57.853Z,-7.37
2018-02-25T01:07:57.728Z,-7.39
2018-02-25T01:08:57.674Z,-7.37
2018-02-25T01:09:57.663Z,-7.49
2018-02-25T01:10:57.660Z,-7.45
2018-02-25T01:11:57.624Z,-7.33
2018-02-25T01:12:57.616Z,-7.44
2018-02-25T01:13:57.592Z,-7.42
2018-02-25T01:14:57.616Z,-7.34
2018-02-25T01:15:57.593Z,-7.38
2018-02-25T01:16:57.552Z,-7.38
2018-02-25T01:17:57.561Z,-7.41
2018-02-25T01:18:57.518Z,-7.51
2018-02-25T01:19:57.502Z,-7.39
2018-02-25T01:20:57.486Z,-7.33
2018-02-25T01:21:57.475Z,-7.41
2018-02-25T01:22:57.465Z,-7.54
2018-02-25T01:23:57.447Z,-7.48
2018-02-25T01:24:57.478Z,-7.47
2018-02-25T01:25:57.411Z,-7.39
2018-02-25T01:26:57.398Z,-7.52
2018-02-25T01:27:57.383Z,-7.62
2018-02-25T01:28:57.370Z,-7.52
2018-02-25T01:29:57.356Z,-7.54
2018-02-25T01:30:57.340Z,-7.56
2018-02-25T01:31:57.345Z,-7.52
2018-02-25T01:32:57.302Z,-7.56
2018-02-25T01:33:57.293Z,-7.65
2018-02-25T01:34:57.274Z,-7.62
2018-02-25T01:35:57.265Z,-7.68
2018-02-25T01:36:57.257Z,-7.63
2018-02-25T01:37:57.231Z,-7.74
2018-02-25T01:38:57.213Z,-7.63
2018-02-25T01:39:57.201Z,-7.65
2018-02-25T01:40:57.187Z,-7.68
2018-02-25T01:41:57.183Z,-7.62
2018-02-25T01:42:57.157Z,-7.65
2018-02-25T01:43:57.138Z,-7.65
2018-02-25T01:44:57.122Z,-7.69
2018-02-25T01:45:57.106Z,-7.70
2018-02-25T01:46:57.093Z,-7.76
2018-02-25T01:47:57.077Z,-7.76
2018-02-25T01:48:57.067Z,-7.74
2018-02-25T01:49:57.058Z,-7.80
2018-02-25T01:50:57.031Z,-7.76
2018-02-25T01:51:57.022Z,-7.72
2018-02-25T01:52:57.009Z,-7.72
2018-02-25T01:53:57.034Z,-7.77
2018-02-25T01:54:56.973Z,-7.76
2018-02-25T01:55:56.982Z,-7.68
2018-02-25T01:56:56.962Z,-7.74
2018-02-25T01:57:56.927Z,-7.76
2018-02-25T01:58:56.911Z,-7.83
2018-02-25T01:59:56.891Z,-7.80
2018-02-25T02:00:56.877Z,-7.76
2018-02-25T02:01:56.867Z,-7.65
2018-02-25T02:02:56.849Z,-7.62
2018-02-25T02:03:56.830Z,-7.62
2018-02-25T02:04:56.816Z,-7.68
2018-02-25T02:05:56.800Z,-7.62
2018-02-25T02:06:56.793Z,-7.77
2018-02-25T02:07:56.787Z,-7.80
2018-02-25T02:08:56.751Z,-7.68
2018-02-25T02:09:56.738Z,-7.83
2018-02-25T02:10:56.723Z,-7.72
2018-02-25T02:11:56.709Z,-7.70
2018-02-25T02:12:56.695Z,-7.72
2018-02-25T02:13:56.675Z,-7.76
2018-02-25T02:14:56.665Z,-7.80
2018-02-25T02:15:56.646Z,-7.81
2018-02-25T02:16:56.629Z,-7.84
2018-02-25T02:17:56.616Z,-7.81
2018-02-25T02:18:56.600Z,-7.81
2018-02-25T02:19:56.585Z,-7.86
2018-02-25T02:20:56.571Z,-7.83
2018-02-25T02:21:56.572Z,-7.81
2018-02-25T02:22:56.536Z,-7.80
2018-02-25T02:23:56.523Z,-7.74
2018-02-25T02:24:56.512Z,-7.76
2018-02-25T02:25:56.493Z,-7.88
2018-02-25T02:26:56.478Z,-7.80
2018-02-25T02:27:56.464Z,-7.86
2018-02-25T02:28:56.449Z,-7.91
2018-02-25T02:29:56.429Z,-7.95
2018-02-25T02:30:56.413Z,-7.83
2018-02-25T02:31:56.399Z,-7.87
2018-02-25T02:32:56.385Z,-7.86
2018-02-25T02:33:56.368Z,-7.91
2018-02-25T02:34:56.351Z,-7.81
2018-02-25T02:35:56.338Z,-7.80
2018-02-25T02:36:56.325Z,-7.86
2018-02-25T02:37:56.313Z,-7.81
2018-02-25T02:38:56.288Z,-7.84
2018-02-25T02:39:56.305Z,-7.72
2018-02-25T02:40:56.260Z,-7.83
2018-02-25T02:41:56.245Z,-7.83
2018-02-25T02:42:56.230Z,-7.76
2018-02-25T02:43:56.218Z,-7.83
2018-02-25T02:44:56.202Z,-7.81
2018-02-25T02:45:56.188Z,-7.95
2018-02-25T02:46:56.166Z,-7.87
2018-02-25T02:47:56.152Z,-7.95
2018-02-25T02:48:56.150Z,-8.08
2018-02-25T02:49:56.140Z,-8.03
2018-02-25T02:50:56.103Z,-8.13
2018-02-25T02:51:56.091Z,-8.19
2018-02-25T02:52:56.074Z,-8.17
2018-02-25T02:53:56.065Z,-8.29
2018-02-25T02:54:56.044Z,-8.31
2018-02-25T02:55:56.030Z,-8.26
2018-02-25T02:56:56.014Z,-8.34
2018-02-25T02:57:56.001Z,-8.20
2018-02-25T02:58:55.986Z,-8.29
2018-02-25T02:59:55.973Z,-8.24
2018-02-25T03:00:55.952Z,-8.37
2018-02-25T03:01:55.947Z,-8.31
2018-02-25T03:02:55.924Z,-8.31
2018-02-25T03:03:55.907Z,-8.21
2018-02-25T03:04:55.888Z,-8.42
2018-02-25T03:05:55.873Z,-8.38
2018-02-25T03:06:55.858Z,-8.38
2018-02-25T03:07:55.841Z,-8.37
2018-02-25T03:08:55.832Z,-8.44
2018-02-25T03:09:55.812Z,-8.48
2018-02-25T03:10:55.808Z,-8.47
2018-02-25T03:11:55.784Z,-8.48
2018-02-25T03:12:55.784Z,-8.53
2018-02-25T03:13:55.752Z,-8.60
2018-02-25T03:14:55.736Z,-8.60
2018-02-25T03:15:55.720Z,-8.58
2018-02-25T03:16:55.708Z,-8.65
2018-02-25T03:17:55.704Z,-8.70
2018-02-25T03:18:55.673Z,-8.78
2018-02-25T03:19:55.667Z,-8.86
2018-02-25T03:20:55.641Z,-8.80
2018-02-25T03:21:55.624Z,-8.92
2018-02-25T03:22:55.613Z,-8.91
2018-02-25T03:23:55.598Z,-8.98
2018-02-25T03:24:55.581Z,-9.01
2018-02-25T03:25:55.569Z,-9.02
2018-02-25T03:26:55.577Z,-8.95
2018-02-25T03:27:55.542Z,-8.89
2018-02-25T03:28:55.522Z,-8.95
2018-02-25T03:29:55.504Z,-8.98
2018-02-25T03:30:55.489Z,-8.97
2018-02-25T03:31:55.473Z,-9.08
2018-02-25T03:32:55.481Z,-9.15
2018-02-25T03:33:55.440Z,-9.19
2018-02-25T03:34:55.446Z,-9.18
2018-02-25T03:35:55.406Z,-9.12
2018-02-25T03:36:55.398Z,-9.28
2018-02-25T03:37:55.386Z,-9.22
2018-02-25T03:38:55.371Z,-9.23
2018-02-25T03:39:55.359Z,-9.22
2018-02-25T03:40:55.335Z,-9.23
2018-02-25T03:41:55.333Z,-9.33
2018-02-25T03:42:55.292Z,-9.20
2018-02-25T03:43:55.277Z,-9.22
2018-02-25T03:44:55.264Z,-9.19
2018-02-25T03:45:55.253Z,-9.02
2018-02-25T03:46:55.239Z,-9.08
2018-02-25T03:47:55.235Z,-9.01
2018-02-25T03:48:55.205Z,-9.13
2018-02-25T03:49:55.198Z,-9.12
2018-02-25T03:50:55.166Z,-9.12
2018-02-25T03:51:55.153Z,-9.16
2018-02-25T03:52:55.168Z,-9.18
2018-02-25T03:53:55.140Z,-9.26
2018-02-25T03:54:55.106Z,-9.12
2018-02-25T03:55:55.086Z,-9.30
2018-02-25T03:56:55.073Z,-9.33
2018-02-25T03:57:55.088Z,-9.46
2018-02-25T03:58:55.041Z,-9.41
2018-02-25T03:59:55.023Z,-9.52
2018-02-25T04:00:55.006Z,-9.48
2018-02-25T04:01:54.988Z,-9.56
2018-02-25T04:02:54.995Z,-9.70
2018-02-25T04:03:54.979Z,-9.66
2018-02-25T04:04:54.944Z,-9.74
2018-02-25T04:05:54.928Z,-9.76
2018-02-25T04:06:54.912Z,-9.64
2018-02-25T04:07:54.915Z,-9.70
2018-02-25T04:08:54.878Z,-9.77
2018-02-25T04:09:54.868Z,-9.82
2018-02-25T04:10:54.846Z,-9.82
2018-02-25T04:11:54.836Z,-9.87
2018-02-25T04:12:54.843Z,-9.73
2018-02-25T04:13:54.798Z,-9.76
2018-02-25T04:14:54.789Z,-9.82
2018-02-25T04:15:54.766Z,-10.06
2018-02-25T04:16:54.751Z,-9.95
2018-02-25T04:17:54.728Z,-9.95
2018-02-25T04:18:54.714Z,-10.09
2018-02-25T04:19:54.702Z,-10.05
2018-02-25T04:20:54.679Z,-9.88
2018-02-25T04:21:54.664Z,-10.06
2018-02-25T04:22:54.650Z,-10.10
2018-02-25T04:23:54.634Z,-10.06
2018-02-25T04:24:54.615Z,-10.06
2018-02-25T04:25:54.599Z,-10.13
2018-02-25T04:26:54.581Z,-10.13
2018-02-25T04:27:54.566Z,-10.12
2018-02-25T04:28:54.548Z,-10.23
2018-02-25T04:29:54.535Z,-10.18
2018-02-25T04:30:54.517Z,-10.09
2018-02-25T04:31:54.516Z,-10.10
2018-02-25T04:32:54.501Z,-10.12
2018-02-25T04:33:54.462Z,-10.18
2018-02-25T04:34:54.455Z,-10.16
2018-02-25T04:35:54.435Z,-10.16
2018-02-25T04:36:54.418Z,-10.16
2018-02-25T04:37:54.396Z,-10.05
2018-02-25T04:38:54.381Z,-10.16
2018-02-25T04:39:54.370Z,-10.09
2018-02-25T04:40:54.351Z,-10.15
2018-02-25T04:41:54.329Z,-10.24
2018-02-25T04:42:54.316Z,-10.24
2018-02-25T04:43:54.323Z,-10.27
2018-02-25T04:44:54.280Z,-10.34
2018-02-25T04:45:54.260Z,-10.26
2018-02-25T04:46:54.246Z,-10.31
2018-02-25T04:47:54.225Z,-10.45
2018-02-25T04:48:54.214Z,-10.39
2018-02-25T04:49:54.191Z,-10.42
2018-02-25T04:50:54.176Z,-10.48
2018-02-25T04:51:54.190Z,-10.51
2018-02-25T04:52:54.152Z,-10.54
2018-02-25T04:53:54.129Z,-10.54
2018-02-25T04:54:54.111Z,-10.38
2018-02-25T04:55:54.924Z,-10.49
2018-02-25T04:56:54.087Z,-10.45
2018-02-25T04:57:54.059Z,-10.51
2018-02-25T04:58:54.040Z,-10.49
2018-02-25T04:59:54.022Z,-10.47
2018-02-25T05:00:54.014Z,-10.49
2018-02-25T05:01:54.003Z,-10.54
2018-02-25T05:02:53.974Z,-10.54
2018-02-25T05:03:54.024Z,-10.54
2018-02-25T05:04:53.935Z,-10.45
2018-02-25T05:05:53.918Z,-10.51
2018-02-25T05:06:53.908Z,-10.49
2018-02-25T05:07:53.887Z,-10.58
2018-02-25T05:08:53.890Z,-10.60
2018-02-25T05:09:53.853Z,-10.52
2018-02-25T05:10:53.832Z,-10.55
2018-02-25T05:11:53.819Z,-10.68
2018-02-25T05:12:53.799Z,-10.62
2018-02-25T05:13:53.787Z,-10.69
2018-02-25T05:14:53.772Z,-10.79
2018-02-25T05:15:53.750Z,-10.76
2018-02-25T05:16:53.731Z,-10.83
2018-02-25T05:17:53.717Z,-10.92
2018-02-25T05:18:53.702Z,-10.90
2018-02-25T05:19:53.678Z,-11.06
2018-02-25T05:20:53.662Z,-10.96
2018-02-25T05:21:53.644Z,-10.91
2018-02-25T05:22:53.627Z,-10.91
2018-02-25T05:23:53.630Z,-10.90
2018-02-25T05:24:53.602Z,-10.88
2018-02-25T05:25:53.577Z,-10.73
2018-02-25T05:26:53.560Z,-10.68
2018-02-25T05:27:53.545Z,-10.70
2018-02-25T05:28:53.521Z,-10.77
2018-02-25T05:29:53.509Z,-10.73
2018-02-25T05:30:53.488Z,-10.87
2018-02-25T05:31:53.476Z,-10.83
2018-02-25T05:32:53.468Z,-10.77
2018-02-25T05:33:53.473Z,-10.73
2018-02-25T05:34:53.424Z,-10.76
2018-02-25T05:35:53.400Z,-10.76
2018-02-25T05:36:53.385Z,-10.85
2018-02-25T05:37:53.367Z,-10.96
2018-02-25T05:38:53.354Z,-11.09
2018-02-25T05:39:53.349Z,-10.99
2018-02-25T05:40:53.315Z,-11.05
2018-02-25T05:41:53.297Z,-11.11
2018-02-25T05:42:53.281Z,-11.26
2018-02-25T05:43:53.264Z,-11.29
2018-02-25T05:44:53.244Z,-11.41
2018-02-25T05:45:53.229Z,-11.30
2018-02-25T05:46:53.214Z,-11.11
2018-02-25T05:47:53.219Z,-11.17
2018-02-25T05:48:53.229Z,-11.12
2018-02-25T05:49:53.162Z,-11.14
2018-02-25T05:50:53.150Z,-11.08
2018-02-25T05:51:53.124Z,-11.02
2018-02-25T05:52:53.110Z,-11.01
2018-02-25T05:53:53.114Z,-10.96
2018-02-25T05:54:53.091Z,-11.05
2018-02-25T05:55:53.064Z,-10.94
2018-02-25T05:56:53.081Z,-11.03
2018-02-25T05:57:53.026Z,-11.01
2018-02-25T05:58:52.999Z,-11.11
2018-02-25T05:59:52.993Z,-11.14
2018-02-25T06:00:52.970Z,-11.11
2018-02-25T06:01:52.951Z,-11.09
2018-02-25T06:02:52.944Z,-11.11
2018-02-25T06:03:52.939Z,-11.01
2018-02-25T06:04:53.034Z,-11.03
2018-02-25T06:05:52.916Z,-10.99
2018-02-25T06:06:52.865Z,-10.98
2018-02-25T06:07:52.853Z,-10.94
2018-02-25T06:08:52.824Z,-11.02
2018-02-25T06:09:52.807Z,-11.03
2018-02-25T06:10:52.791Z,-11.14
2018-02-25T06:11:52.786Z,-11.20
2018-02-25T06:12:52.759Z,-11.24
2018-02-25T06:13:52.735Z,-11.19
2018-02-25T06:14:52.722Z,-11.14
2018-02-25T06:15:52.717Z,-11.14
2018-02-25T06:16:52.681Z,-11.11
2018-02-25T06:17:52.667Z,-10.98
2018-02-25T06:18:52.718Z,-11.08
2018-02-25T06:19:52.636Z,-11.02
2018-02-25T06:20:52.611Z,-10.99
2018-02-25T06:21:52.596Z,-11.02
2018-02-25T06:22:52.577Z,-11.03
2018-02-25T06:23:52.560Z,-10.96
2018-02-25T06:24:52.543Z,-11.03
2018-02-25T06:25:52.523Z,-10.99
2018-02-25T06:26:52.526Z,-11.05
2018-02-25T06:27:52.492Z,-10.96
2018-02-25T06:28:52.504Z,-11.06
2018-02-25T06:29:52.451Z,-10.99
2018-02-25T06:30:52.471Z,-11.01
2018-02-25T06:31:52.422Z,-11.01
2018-02-25T06:32:52.400Z,-10.92
2018-02-25T06:33:52.383Z,-10.92
2018-02-25T06:34:52.363Z,-10.58
2018-02-25T06:35:52.346Z,-10.09
2018-02-25T06:36:52.375Z,-9.76
2018-02-25T06:37:52.310Z,-9.70
2018-02-25T06:38:52.356Z,-9.62
2018-02-25T06:39:53.313Z,-9.55
2018-02-25T06:40:52.257Z,-9.41
2018-02-25T06:41:52.242Z,-9.28
2018-02-25T06:42:52.223Z,-8.83
2018-02-25T06:43:52.769Z,-8.24
2018-02-25T06:44:52.198Z,-7.84
2018-02-25T06:45:52.174Z,-7.37
2018-02-25T06:46:52.195Z,-7.02
2018-02-25T06:47:52.150Z,-6.67
2018-02-25T06:48:52.125Z,-6.51
2018-02-25T06:49:52.110Z,-6.36
2018-02-25T06:50:52.099Z,-6.29
2018-02-25T06:51:52.082Z,-5.91
2018-02-25T06:52:52.067Z,-5.72
2018-02-25T06:53:52.049Z,-5.54
2018-02-25T06:54:52.042Z,-5.30
2018-02-25T06:55:52.029Z,-5.17
2018-02-25T06:56:52.008Z,-5.01
2018-02-25T06:57:51.994Z,-5.00
2018-02-25T06:58:51.982Z,-4.79
2018-02-25T06:59:51.969Z,-4.50
2018-02-25T07:00:51.957Z,-4.22
2018-02-25T07:01:51.947Z,-3.87
2018-02-25T07:02:51.940Z,-3.68
2018-02-25T07:03:51.924Z,-3.72
2018-02-25T07:04:51.907Z,-3.56
2018-02-25T07:05:51.894Z,-3.32
2018-02-25T07:06:51.889Z,-3.13
2018-02-25T07:07:51.876Z,-3.04
2018-02-25T07:08:51.912Z,-3.36
2018-02-25T07:09:51.855Z,-3.46
2018-02-25T07:10:51.844Z,-3.47
2018-02-25T07:11:51.833Z,-3.53
2018-02-25T07:12:51.820Z,-3.44
2018-02-25T07:13:51.817Z,-3.49
2018-02-25T07:14:51.811Z,-3.70
2018-02-25T07:15:52.856Z,-3.87
2018-02-25T07:16:51.963Z,-4.07
2018-02-25T07:17:51.858Z,-3.80
2018-02-25T07:18:51.801Z,-3.93
2018-02-25T07:19:51.792Z,-3.91
2018-02-25T07:20:51.788Z,-3.87
2018-02-25T07:21:51.773Z,-4.37
2018-02-25T07:22:51.747Z,-4.28
2018-02-25T07:23:51.727Z,-4.01
2018-02-25T07:24:51.717Z,-3.90
2018-02-25T07:25:51.709Z,-3.90
2018-02-25T07:26:51.741Z,-3.57
2018-02-25T07:27:51.766Z,-3.75
2018-02-25T07:28:51.700Z,-3.46
2018-02-25T07:29:51.718Z,-3.44
2018-02-25T07:30:51.726Z,-3.14
2018-02-25T07:31:51.750Z,-3.08
2018-02-25T07:32:51.692Z,-3.07
2018-02-25T07:33:51.684Z,-2.82
2018-02-25T07:34:51.654Z,-2.53
2018-02-25T07:35:51.641Z,-2.47
2018-02-25T07:36:51.666Z,-2.74
2018-02-25T07:37:51.629Z,-2.86
2018-02-25T07:38:51.622Z,-2.68
2018-02-25T07:39:51.630Z,-2.18
2018-02-25T07:40:51.614Z,-2.28
2018-02-25T07:41:51.634Z,-2.35
2018-02-25T07:42:51.612Z,-2.23
2018-02-25T07:43:51.597Z,-1.82
2018-02-25T07:44:51.647Z,-2.60
2018-02-25T07:45:51.610Z,-2.42
2018-02-25T07:46:51.590Z,-1.96
2018-02-25T07:47:51.573Z,-1.67
2018-02-25T07:48:51.593Z,-1.80
2018-02-25T07:49:51.588Z,-1.39
2018-02-25T07:50:51.572Z,-1.62
2018-02-25T07:51:51.567Z,-0.89
2018-02-25T07:52:52.287Z,-1.24
2018-02-25T07:53:51.557Z,-3.11
2018-02-25T07:54:51.574Z,-3.13
2018-02-25T07:55:51.551Z,-2.97
2018-02-25T07:56:51.563Z,-3.33
2018-02-25T07:57:51.542Z,-3.41
2018-02-25T07:58:51.619Z,-2.76
2018-02-25T07:59:51.529Z,-2.40
2018-02-25T08:00:51.530Z,-2.69
2018-02-25T08:01:51.519Z,-2.58
2018-02-25T08:02:51.525Z,-3.07
2018-02-25T08:03:51.522Z,-3.90
2018-02-25T08:04:51.511Z,-5.33
2018-02-25T08:05:51.507Z,-5.94
2018-02-25T08:06:51.508Z,-6.45
2018-02-25T08:07:51.499Z,-6.97
2018-02-25T08:08:51.494Z,-6.92
2018-02-25T08:09:51.484Z,-6.70
2018-02-25T08:10:51.480Z,-6.67
2018-02-25T08:11:51.474Z,-6.70
2018-02-25T08:12:51.472Z,-6.63
2018-02-25T08:13:51.465Z,-6.48
2018-02-25T08:14:51.454Z,-6.54
2018-02-25T08:15:51.445Z,-6.67
2018-02-25T08:16:51.440Z,-6.19
2018-02-25T08:17:51.432Z,-6.64
2018-02-25T08:18:51.425Z,-6.71
2018-02-25T08:19:51.419Z,-7.08
2018-02-25T08:20:51.405Z,-6.69
2018-02-25T08:21:51.409Z,-6.50
2018-02-25T08:22:51.393Z,-6.81
2018-02-25T08:23:51.380Z,-7.13
2018-02-25T08:24:51.374Z,-7.49
2018-02-25T08:25:51.363Z,-7.77
2018-02-25T08:26:52.274Z,-7.87
2018-02-25T08:27:51.352Z,-7.81
2018-02-25T08:28:51.336Z,-7.21
2018-02-25T08:29:51.327Z,-6.97
2018-02-25T08:30:51.320Z,-6.51
2018-02-25T08:31:51.305Z,-6.61
2018-02-25T08:32:51.296Z,-6.67
2018-02-25T08:33:51.290Z,-6.69
2018-02-25T08:34:51.275Z,-6.55
2018-02-25T08:35:51.267Z,-6.21
2018-02-25T08:36:51.254Z,-5.12
2018-02-25T08:37:51.279Z,-4.28
2018-02-25T08:38:51.236Z,-4.46
2018-02-25T08:39:51.236Z,-4.76
2018-02-25T08:40:51.221Z,-4.51
2018-02-25T08:41:51.280Z,-4.01
2018-02-25T08:42:51.287Z,-2.85
2018-02-25T08:43:51.194Z,-3.72
2018-02-25T08:44:51.184Z,-4.50
2018-02-25T08:45:51.306Z,-5.01
2018-02-25T08:46:51.174Z,-5.01
2018-02-25T08:47:51.199Z,-5.55
2018-02-25T08:48:51.195Z,-6.08
2018-02-25T08:49:51.151Z,-6.47
2018-02-25T08:50:51.141Z,-6.71
2018-02-25T08:51:51.135Z,-6.82
2018-02-25T08:52:51.126Z,-6.45
2018-02-25T08:53:51.121Z,-6.18
2018-02-25T08:54:51.109Z,-6.21
2018-02-25T08:55:51.110Z,-6.61
2018-02-25T08:56:51.090Z,-6.54
2018-02-25T08:57:51.085Z,-6.55
2018-02-25T08:58:51.088Z,-6.50
2018-02-25T08:59:51.068Z,-5.51
2018-02-25T09:00:51.053Z,-5.73
2018-02-25T09:01:51.045Z,-6.15
2018-02-25T09:02:51.035Z,-6.48
2018-02-25T09:03:51.028Z,-6.61
2018-02-25T09:04:51.016Z,-6.76
2018-02-25T09:05:51.010Z,-6.99
2018-02-25T09:06:51.024Z,-7.13
2018-02-25T09:07:50.991Z,-7.21
2018-02-25T09:08:50.982Z,-7.19
2018-02-25T09:09:50.980Z,-6.88
2018-02-25T09:10:50.966Z,-5.69
2018-02-25T09:11:50.953Z,-5.51
2018-02-25T09:12:50.940Z,-6.01
2018-02-25T09:13:50.933Z,-5.27
2018-02-25T09:14:50.940Z,-4.54
2018-02-25T09:15:50.934Z,-4.11
2018-02-25T09:16:50.932Z,-4.71
2018-02-25T09:17:50.902Z,-5.20
2018-02-25T09:18:50.889Z,-4.32
2018-02-25T09:19:50.885Z,-3.71
2018-02-25T09:20:50.875Z,-3.04
2018-02-25T09:21:50.905Z,-2.39
2018-02-25T09:22:50.871Z,-2.18
2018-02-25T09:23:50.860Z,-0.92
2018-02-25T09:24:50.855Z,-0.16
2018-02-25T09:25:50.855Z,0.09
2018-02-25T09:26:50.851Z,0.98
2018-02-25T09:27:50.848Z,1.61
2018-02-25T09:28:50.850Z,1.93
2018-02-25T09:29:51.030Z,2.22
2018-02-25T09:30:50.847Z,2.19
2018-02-25T09:31:50.893Z,2.45
2018-02-25T09:34:22.433Z,1.00
2018-02-25T09:37:07.245Z,0.21
2018-02-25T09:38:05.310Z,-0.48
2018-02-25T09:39:05.313Z,-1.57
2018-02-25T09:40:08.072Z,-1.18
2018-02-25T09:41:06.106Z,-0.81
2018-02-25T09:42:07.057Z,-2.39
2018-02-25T09:43:05.243Z,-3.39
2018-02-25T09:44:05.224Z,-3.22
2018-02-25T09:45:05.226Z,-2.61
2018-02-25T09:46:05.381Z,-2.17
2018-02-25T09:47:05.228Z,-1.56
2018-02-25T09:48:06.034Z,-1.30
2018-02-25T09:49:05.232Z,-1.39
2018-02-25T09:50:05.234Z,-1.36
2018-02-25T09:51:05.248Z,-1.20
2018-02-25T09:53:55.237Z,-0.60
2018-02-25T09:55:00.738Z,0.02
2018-02-25T09:57:36.944Z,0.03
2018-02-25T09:58:36.934Z,-0.95
2018-02-25T10:00:32.266Z,-1.42
2018-02-25T10:01:32.389Z,-0.99
2018-02-25T10:03:26.597Z,-0.86
2018-02-25T10:04:27.270Z,-1.24
2018-02-25T10:06:21.052Z,-0.87
2018-02-25T10:07:21.025Z,-1.31
2018-02-25T10:09:28.115Z,-2.00
2018-02-25T10:10:28.109Z,-2.00
2018-02-25T10:12:22.590Z,-1.53
2018-02-25T10:13:22.504Z,-1.36
2018-02-25T10:15:17.920Z,-1.31
2018-02-25T10:16:17.924Z,-1.33
2018-02-25T10:18:12.416Z,-1.75
2018-02-25T10:19:12.434Z,-2.36
2018-02-25T10:21:07.872Z,-2.43
2018-02-25T10:22:15.435Z,-2.10
2018-02-25T10:24:01.192Z,-2.17
2018-02-25T10:25:01.150Z,-2.35
2018-02-25T10:26:55.522Z,-1.72
2018-02-25T10:27:55.526Z,-2.33
2018-02-25T10:29:49.949Z,-2.97
2018-02-25T10:30:49.974Z,-3.11
2018-02-25T10:32:44.467Z,-3.31
2018-02-25T10:33:44.455Z,-3.20
2018-02-25T10:34:44.449Z,-2.74
2018-02-25T10:35:45.959Z,-2.42
2018-02-25T10:36:46.987Z,-2.68
2018-02-25T10:37:53.958Z,-2.99
2018-02-25T10:39:42.386Z,-2.92
2018-02-25T10:40:42.204Z,-2.92
2018-02-25T10:41:42.194Z,-2.96
2018-02-25T10:42:42.200Z,-3.15
2018-02-25T10:43:43.783Z,-3.04
2018-02-25T10:44:42.210Z,-2.79
2018-02-25T10:45:42.209Z,-2.39
2018-02-25T10:46:42.198Z,-2.32
2018-02-25T10:47:42.204Z,-2.11
2018-02-25T10:48:42.197Z,-2.32
2018-02-25T10:49:42.203Z,-2.78
2018-02-25T10:50:42.192Z,-2.36
2018-02-25T10:51:42.200Z,-2.18
2018-02-25T10:52:42.205Z,-2.00
2018-02-25T10:53:42.188Z,-1.80
2018-02-25T10:54:42.187Z,-1.66
2018-02-25T10:55:42.186Z,-1.77
2018-02-25T10:56:42.173Z,-1.85
2018-02-25T10:57:42.425Z,-1.57
2018-02-25T10:58:42.267Z,-1.53
2018-02-25T10:59:50.889Z,-2.00
2018-02-25T11:01:36.739Z,-2.56
2018-02-25T11:02:36.591Z,-2.38
2018-02-25T11:04:30.885Z,-2.17
2018-02-25T11:05:30.923Z,-1.82
2018-02-25T11:07:25.266Z,-1.31
2018-02-25T11:08:25.309Z,-1.46
2018-02-25T11:09:25.278Z,-1.57
2018-02-25T11:10:25.256Z,-1.77
2018-02-25T11:12:56.617Z,-2.21
2018-02-25T11:13:56.521Z,-2.58
2018-02-25T11:16:47.423Z,-2.78
2018-02-25T11:19:07.384Z,-2.74
2018-02-25T11:20:07.325Z,-2.61
2018-02-25T11:22:27.944Z,-2.72
2018-02-25T11:23:50.136Z,-2.69
2018-02-25T11:25:22.395Z,-2.85
2018-02-25T11:27:58.035Z,-2.20
2018-02-25T11:28:57.982Z,-2.14
2018-02-25T11:29:57.992Z,-1.99
2018-02-25T11:30:57.965Z,-1.62
2018-02-25T11:31:57.933Z,-1.30
2018-02-25T11:32:57.924Z,-1.33
2018-02-25T11:33:57.917Z,-1.98
2018-02-25T11:34:57.909Z,-2.21
2018-02-25T11:35:57.903Z,-1.96
2018-02-25T11:36:57.894Z,-2.02
2018-02-25T11:37:57.893Z,-2.29
2018-02-25T11:38:57.881Z,-2.28
2018-02-25T11:39:57.875Z,-1.84
2018-02-25T11:40:57.869Z,-1.77
2018-02-25T11:41:57.862Z,-1.72
2018-02-25T11:42:57.855Z,-1.75
2018-02-25T11:43:57.879Z,-1.95
2018-02-25T11:44:57.844Z,-2.05
2018-02-25T11:45:57.830Z,-2.03
2018-02-25T11:47:06.508Z,-2.00
2018-02-25T11:48:52.228Z,-1.41
2018-02-25T11:49:52.317Z,-1.60
2018-02-25T11:51:47.172Z,-1.84
2018-02-25T11:52:46.686Z,-1.98
2018-02-25T11:54:40.898Z,-2.08
2018-02-25T11:55:40.876Z,-2.10
2018-02-25T11:57:35.232Z,-1.87
2018-02-25T11:58:35.217Z,-2.14
2018-02-25T12:00:29.625Z,-1.84
2018-02-25T12:01:29.581Z,-1.78
2018-02-25T12:03:23.975Z,-2.54
2018-02-25T12:04:24.519Z,-2.60
2018-02-25T12:06:18.274Z,-2.81
2018-02-25T12:07:18.245Z,-2.75
2018-02-25T12:09:12.629Z,-2.56
2018-02-25T12:10:12.602Z,-2.58
2018-02-25T12:12:06.975Z,-1.99
2018-02-25T12:13:06.928Z,-1.82
2018-02-25T12:15:01.298Z,-1.69
2018-02-25T12:16:01.274Z,-1.49
2018-02-25T12:17:55.645Z,-1.51
2018-02-25T12:18:55.629Z,-2.26
2018-02-25T12:20:50.130Z,-2.38
2018-02-25T12:21:50.079Z,-2.23
2018-02-25T12:23:44.438Z,-1.84
2018-02-25T12:24:44.387Z,-1.60
2018-02-25T12:26:38.747Z,-1.42
2018-02-25T12:27:38.738Z,-1.60
2018-02-25T12:29:33.142Z,-1.56
2018-02-25T12:30:33.093Z,-1.45
2018-02-25T12:32:27.453Z,-1.59
2018-02-25T12:33:27.440Z,-1.96
2018-02-25T12:35:21.833Z,-2.32
2018-02-25T12:36:21.790Z,-1.95
2018-02-25T12:38:16.120Z,-1.96
2018-02-25T12:39:16.136Z,-1.63
2018-02-25T12:41:10.500Z,-1.28
2018-02-25T12:42:10.551Z,-1.18
2018-02-25T12:44:04.882Z,-1.33
2018-02-25T12:45:04.866Z,-1.53
2018-02-25T12:46:59.232Z,-1.98
2018-02-25T12:47:59.182Z,-1.93
2018-02-25T12:49:53.545Z,-1.78
2018-02-25T12:50:53.512Z,-1.77
2018-02-25T12:52:48.196Z,-2.00
2018-02-25T12:53:48.190Z,-1.98
2018-02-25T12:55:42.797Z,-1.95
2018-02-25T12:56:42.591Z,-1.75
2018-02-25T12:58:37.782Z,-1.63
2018-02-25T12:59:37.746Z,-1.66
2018-02-25T13:01:33.864Z,-1.62
2018-02-25T13:02:32.060Z,-1.80
2018-02-25T13:04:26.599Z,-1.80
2018-02-25T13:05:35.097Z,-1.63
2018-02-25T13:08:03.468Z,-1.43
2018-02-25T13:09:03.427Z,-1.33
2018-02-25T13:10:03.453Z,-1.31
2018-02-25T13:11:03.348Z,-1.27
2018-02-25T13:12:04.982Z,-1.20
2018-02-25T13:13:04.912Z,-1.41
2018-02-25T13:14:03.303Z,-1.43
2018-02-25T13:15:03.313Z,-1.49
2018-02-25T13:16:03.290Z,-1.41
2018-02-25T13:17:03.281Z,-1.35
2018-02-25T13:18:03.300Z,-1.66
2018-02-25T13:19:05.033Z,-1.66
2018-02-25T13:20:03.300Z,-1.56
2018-02-25T13:21:03.250Z,-1.41
2018-02-25T13:22:03.311Z,-1.72
2018-02-25T13:23:03.277Z,-1.96
2018-02-25T13:24:03.261Z,-2.29
2018-02-25T13:25:03.295Z,-2.20
2018-02-25T13:26:03.226Z,-2.24
2018-02-25T13:27:03.198Z,-2.02
2018-02-25T13:28:03.180Z,-1.81
2018-02-25T13:29:03.220Z,-1.80
2018-02-25T13:30:05.068Z,-1.57
2018-02-25T13:31:03.205Z,-1.28
2018-02-25T13:32:04.387Z,-1.27
2018-02-25T13:33:05.183Z,-1.24
2018-02-25T13:34:03.143Z,-1.24
2018-02-25T13:47:52.383Z,-1.69
2018-02-25T13:48:42.984Z,-1.99
2018-02-25T13:50:38.241Z,-1.80
2018-02-25T13:51:38.315Z,-1.88
2018-02-25T13:53:32.529Z,-1.99
2018-02-25T13:54:32.801Z,-1.67
2018-02-25T13:55:32.990Z,-1.48
2018-02-25T13:56:32.563Z,-1.67
2018-02-25T13:57:32.498Z,-1.82
2018-02-25T14:08:31.880Z,-1.35
2018-02-25T14:11:44.405Z,-1.30
2018-02-25T14:13:54.313Z,-1.21
2018-02-25T14:14:55.712Z,-1.30